Flight Track Log - Related Links

Times and Time Zones

All times are in EDT time to prevent confusion due to time zone crossing. See the SWA3213 flight status page for this flight to view local times or setup timezone preferences in your user account.

Time Position Orientation Groundspeed Altitude Reporting Facility
EDT Latitude Longitude Course Direction KTS MPH feet Rate Location/Type
Thu 10:43:08 AM 28.0000 -82.5333 360° North 147 169 900  Level Tampa TRACON
Thu 10:43:56 AM 28.0333 -82.5333 360° North 189 217 2,400 2,667 Climbing Tampa TRACON
Thu 10:44:56 AM 28.1000 -82.5333 360° North 251 289 5,700 3,176 Climbing Tampa TRACON
Thu 10:46:29 AM 28.1892 -82.5936 329° Northwest 257 296 10,500 2,471 Climbing Jacksonville Center
Thu 10:47:29 AM 28.2664 -82.6356 334° Northwest 275 316 12,000 2,150 Climbing Jacksonville Center
Thu 10:48:29 AM 28.3500 -82.6850 333° Northwest 310 357 14,800 2,550 Climbing Jacksonville Center
Thu 10:49:29 AM 28.4358 -82.7344 333° Northwest 328 377 17,100 2,250 Climbing Jacksonville Center
Thu 10:50:29 AM 28.5256 -82.7864 333° Northwest 345 397 19,300 2,083 Climbing Jacksonville Center
Thu 10:51:30 AM 28.6217 -82.8239 341° North 350 403 21,300 1,800 Climbing Jacksonville Center
Thu 10:52:29 AM 28.7156 -82.8522 345° North 367 422 22,900 1,664 Climbing Jacksonville Center
Thu 10:53:29 AM 28.8114 -82.8997 337° Northwest 373 429 24,600 1,488 Climbing Jacksonville Center
Thu 10:54:30 AM 28.9117 -82.9472 337° Northwest 378 435 25,900 750 Climbing Jacksonville Center
Thu 10:55:29 AM 29.0097 -82.9969 336° Northwest 378 435 26,100 1,059 Climbing Jacksonville Center
Thu 10:56:29 AM 29.1056 -83.0400 339° North 378 435 28,000 1,750 Climbing Jacksonville Center
Thu 10:57:29 AM 29.2036 -83.0853 338° Northwest 378 435 29,600 1,500 Climbing Jacksonville Center
Thu 10:58:29 AM 29.2850 -83.1497 325° Northwest 365 420 31,000 1,300 Climbing Jacksonville Center
Thu 10:59:29 AM 29.3664 -83.2167 324° Northwest 365 420 32,200 1,100 Climbing Jacksonville Center
Thu 11:00:29 AM 29.4497 -83.2836 325° Northwest 360 414 33,200 900 Climbing Jacksonville Center
Thu 11:01:29 AM 29.5350 -83.3533 325° Northwest 360 414 34,000 400 Climbing Jacksonville Center
Thu 11:02:29 AM 29.6203 -83.4206 326° Northwest 365 420 34,000  Level Jacksonville Center
Thu 11:03:30 AM 29.7056 -83.4928 324° Northwest 371 427 34,000  Level Jacksonville Center
Thu 11:04:30 AM 29.8011 -83.5675 326° Northwest 371 427 34,000 -50 Level Jacksonville Center
Thu 11:05:30 AM 29.8886 -83.6400 324° Northwest 377 434 33,900 600 Descending Jacksonville Center
Thu 11:06:30 AM 29.9736 -83.7103 324° Northwest 377 434 35,200 1,050 Climbing Jacksonville Center
Thu 11:07:30 AM 30.0525 -83.7756 324° Northwest 370 426 36,000 400 Climbing Jacksonville Center
Thu 11:08:30 AM 30.1314 -83.8389 325° Northwest 356 410 36,000  Level Jacksonville Center
Thu 11:09:30 AM 30.2125 -83.9069 324° Northwest 356 410 36,000  Level Jacksonville Center
Thu 11:10:29 AM 30.2933 -83.9728 325° Northwest 361 415 36,000  Level Jacksonville Center
Thu 11:11:29 AM 30.3761 -84.0411 325° Northwest 361 415 36,000  Level Jacksonville Center
Thu 11:12:30 AM 30.4592 -84.1072 326° Northwest 361 415 36,000  Level Jacksonville Center
Thu 11:13:29 AM 30.5397 -84.1756 324° Northwest 361 415 36,000  Level Jacksonville Center
Thu 11:14:30 AM 30.6164 -84.2419 323° Northwest 355 409 36,000  Level Jacksonville Center
Thu 11:15:30 AM 30.6992 -84.3131 324° Northwest 355 409 36,000  Level Jacksonville Center
Thu 11:16:30 AM 30.7797 -84.3797 325° Northwest 362 417 36,000  Level Jacksonville Center
Thu 11:17:30 AM 30.8625 -84.4464 325° Northwest 362 417 36,000  Level Jacksonville Center
Thu 11:18:30 AM 30.9389 -84.5131 323° Northwest 357 411 36,000  Level Jacksonville Center
Thu 11:19:29 AM 31.0194 -84.5822 324° Northwest 357 411 36,000  Level Jacksonville Center
Thu 11:20:29 AM 31.1000 -84.6517 324° Northwest 363 418 36,000  Level Jacksonville Center
Thu 11:21:29 AM 31.1783 -84.7161 325° Northwest 363 418 36,000  Level Jacksonville Center
Thu 11:22:29 AM 31.2589 -84.7833 325° Northwest 358 412 36,000  Level Jacksonville Center
Thu 11:24:46 AM 31.4386 -84.9394 323° Northwest 346 398 36,000  Level Atlanta Center
Thu 11:25:46 AM 31.5175 -85.0058 324° Northwest 351 404 36,000  Level Atlanta Center
Thu 11:26:46 AM 31.5983 -85.0750 324° Northwest 356 410 36,000  Level Atlanta Center
Thu 11:27:46 AM 31.6647 -85.1294 325° Northwest 361 415 36,000  Level Atlanta Center
Thu 11:28:46 AM 31.7475 -85.1989 325° Northwest 356 410 36,000  Level Atlanta Center
Thu 11:29:46 AM 31.8261 -85.2683 323° Northwest 356 410 36,000  Level Atlanta Center
Thu 11:30:46 AM 31.9047 -85.3356 324° Northwest 356 410 36,000  Level Atlanta Center
Thu 11:31:46 AM 31.9833 -85.4053 323° Northwest 356 410 36,000  Level Atlanta Center
Thu 11:32:46 AM 32.0639 -85.4725 325° Northwest 361 415 36,000  Level Atlanta Center
Thu 11:33:46 AM 32.1425 -85.5400 324° Northwest 361 415 36,000  Level Atlanta Center
Thu 11:34:46 AM 32.2231 -85.6103 324° Northwest 361 415 36,000  Level Atlanta Center
Thu 11:35:46 AM 32.3014 -85.6778 324° Northwest 361 415 36,000  Level Atlanta Center
Thu 11:36:46 AM 32.3881 -85.7533 324° Northwest 361 415 36,000  Level Atlanta Center
Thu 11:37:46 AM 32.4642 -85.8236 322° Northwest 356 410 36,000  Level Atlanta Center
Thu 11:38:46 AM 32.5447 -85.8894 325° Northwest 356 410 36,000  Level Atlanta Center
Thu 11:39:46 AM 32.6231 -85.9575 324° Northwest 356 410 36,000  Level Atlanta Center
Thu 11:40:46 AM 32.6992 -86.0258 323° Northwest 356 410 36,000  Level Atlanta Center
Thu 11:41:46 AM 32.7772 -86.0944 324° Northwest 356 410 36,000  Level Atlanta Center
Thu 11:42:46 AM 32.8553 -86.1678 322° Northwest 356 410 36,000  Level Atlanta Center
Thu 11:43:46 AM 32.9333 -86.2414 322° Northwest 356 410 36,000  Level Atlanta Center
Thu 11:44:46 AM 33.0094 -86.3006 327° Northwest 356 410 36,000  Level Atlanta Center
Thu 11:45:46 AM 33.0853 -86.3767 320° Northwest 351 404 36,000  Level Atlanta Center
Thu 11:46:46 AM 33.1614 -86.4408 325° Northwest 351 404 36,000  Level Atlanta Center
Thu 11:47:46 AM 33.2414 -86.5075 325° Northwest 346 398 36,000  Level Atlanta Center
Thu 11:48:46 AM 33.3050 -86.5692 321° Northwest 337 388 36,000  Level Atlanta Center
Thu 11:49:46 AM 33.3808 -86.6361 324° Northwest 337 388 36,000  Level Atlanta Center
Thu 11:50:46 AM 33.4586 -86.7081 322° Northwest 337 388 36,000  Level Atlanta Center
Thu 11:51:46 AM 33.5342 -86.7778 322° Northwest 337 388 36,000  Level Atlanta Center
Thu 11:52:46 AM 33.6100 -86.8450 324° Northwest 337 388 36,000  Level Atlanta Center
Thu 11:53:46 AM 33.6792 -86.9219 317° Northwest 337 388 36,000  Level Atlanta Center
Thu 11:54:46 AM 33.7269 -87.0186 301° West 326 375 36,000  Level Atlanta Center
Thu 11:55:46 AM 33.7706 -87.1100 300° West 326 375 36,000 -253 Level Atlanta Center
Thu 11:57:56 AM 33.8719 -87.3197 300° West 330 380 35,200 -313 Descending Memphis Center
Thu 11:58:58 AM 33.9167 -87.4150 300° West 330 380 35,000 -97 Descending Memphis Center
Thu 12:00:00 PM 33.9633 -87.5106 301° West 330 380 35,000 -629 Level Memphis Center
Thu 12:01:02 PM 34.0083 -87.6083 299° West 330 380 33,700 -1,742 Descending Memphis Center
Thu 12:02:04 PM 34.0622 -87.7236 299° West 336 387 31,400 -2,468 Descending Memphis Center
Thu 12:03:06 PM 34.1114 -87.8247 300° West 345 397 28,600 -2,661 Descending Memphis Center
Thu 12:04:08 PM 34.1631 -87.9353 299° West 351 404 25,900 -1,728 Descending Memphis Center
Thu 12:05:11 PM 34.2122 -88.0389 300° West 353 406 25,000 -912 Descending Memphis Center
Thu 12:06:13 PM 34.2631 -88.1414 301° West 353 406 24,000 -484 Descending Memphis Center
Thu 12:07:15 PM 34.3150 -88.2458 301° West 356 410 24,000  Level Memphis Center
Thu 12:08:17 PM 34.3694 -88.3558 301° West 373 429 24,000  Level Memphis Center
Thu 12:09:19 PM 34.4356 -88.4900 301° West 384 442 24,000  Level Memphis Center
Thu 12:10:21 PM 34.4897 -88.5994 301° West 383 441 24,000  Level Memphis Center
Thu 12:11:23 PM 34.5428 -88.7081 301° West 378 435 24,000  Level Memphis Center
Thu 12:12:25 PM 34.6008 -88.8267 301° West 372 428 24,000 -919 Level Memphis Center
Thu 12:13:27 PM 34.6475 -88.9350 298° West 368 423 22,100 -2,081 Descending Memphis Center
Thu 12:14:29 PM 34.6694 -89.0511 283° West 356 410 19,700 -1,935 Descending Memphis Center
Thu 12:15:31 PM 34.6928 -89.1564 285° West 330 380 18,100 -1,742 Descending Memphis Center
Thu 12:16:33 PM 34.7164 -89.2547 286° West 311 358 16,100 -1,008 Descending Memphis Center
Thu 12:17:36 PM 34.7383 -89.3522 285° West 304 350 16,000 -192 Descending Memphis Center
Thu 12:18:38 PM 34.7639 -89.4697 285° West 302 348 15,700 -1,161 Descending Memphis Center
Thu 12:19:40 PM 34.8022 -89.5606 297° West 300 345 13,600 -1,742 Descending Memphis Center
Thu 12:20:42 PM 34.8436 -89.6417 302° West 290 334 12,100 -1,210 Descending Memphis Center
Thu 12:21:44 PM 34.8811 -89.7158 302° West 273 314 11,100 -1,306 Descending Memphis Center
Thu 12:22:46 PM 34.9247 -89.8017 302° West 262 302 9,400 -1,210 Descending Memphis Center
Thu 12:23:48 PM 34.9697 -89.8592 314° West 255 293 8,600 -677 Descending Memphis Center
Thu 12:24:50 PM 35.0342 -89.8600 359° North 239 275 8,000 -774 Descending Memphis Center
Thu 12:25:52 PM 35.0928 -89.8614 359° North 217 250 7,000 -1,258 Descending Memphis Center
Thu 12:26:54 PM 35.1492 -89.8622 359° North 208 239 5,400 -1,604 Descending Memphis Center
Thu 12:27:33 PM 35.1833 -89.8833 333° Northwest 208 239 4,300 -1,212 Descending KMEM
Thu 12:28:33 PM 35.1833 -89.9500 270° West 199 229 3,400 -1,000 Descending KMEM
Thu 12:29:33 PM 35.1500 -89.9833 219° Southwest 189 217 2,300 -1,000 Descending KMEM
Thu 12:30:33 PM 35.1000 -89.9833 180° South 155 178 1,400 -850 Descending KMEM
Thu 12:31:33 PM 35.0667 -89.9833 180° South 138 159 600 -800 Descending KMEM

Login

Don't have an account? Register now (free) for customized features, flight alerts, and more!